Tawas City, Michigan
Current Conditions -  °F | °C
As of 3:13 AM on Friday 31 Oct 2014 (Local Time) from KOSC Reporting Station
Moderate Rain Moderate Rain  
Wind Chill: 41°   Ceiling: 6500
Heat Index: 41°   Visibility: 7mi
Dew Point: 41°   Wind: 3mph
Humidity: 99%   Direction: 240°WSW
Pressure: 29.89"   Gusts: NA
Location:  44.27°N, 83.52°W
Report Text: KOSC 310713Z AUTO 24003KT 7SM RA SCT034 SCT040 OVC065 05/05 A2989 RMK AO2 T00510049
Loading
Personal Weather Stations






























Interactive Weather Map
Tropical Storm Tracking
New forecast layout! Learn more

10-Day Weather Forecast

Advertisements
Track Severe Weather on mobile